sensor_id;sensor_type;location;lat;lon;timestamp;temperature;humidity
43987;DHT22;29650;47.378;8.300;2024-02-15T00:00:51;6.30;99.90
43987;DHT22;29650;47.378;8.300;2024-02-15T00:03:18;6.40;99.90
43987;DHT22;29650;47.378;8.300;2024-02-15T00:05:46;6.40;99.90
43987;DHT22;29650;47.378;8.300;2024-02-15T00:08:13;6.40;99.90
43987;DHT22;29650;47.378;8.300;2024-02-15T00:10:40;6.30;99.60
43987;DHT22;29650;47.378;8.300;2024-02-15T00:13:07;6.40;99.90
43987;DHT22;29650;47.378;8.300;2024-02-15T00:15:34;6.30;99.90
43987;DHT22;29650;47.378;8.300;2024-02-15T00:18:02;6.20;99.90
43987;DHT22;29650;47.378;8.300;2024-02-15T00:20:29;6.00;99.90
43987;DHT22;29650;47.378;8.300;2024-02-15T00:22:58;6.00;99.90
43987;DHT22;29650;47.378;8.300;2024-02-15T00:25:25;5.80;99.90
43987;DHT22;29650;47.378;8.300;2024-02-15T00:27:52;5.80;99.90
43987;DHT22;29650;47.378;8.300;2024-02-15T00:30:19;5.80;99.90
43987;DHT22;29650;47.378;8.300;2024-02-15T00:32:46;5.70;99.90
43987;DHT22;29650;47.378;8.300;2024-02-15T00:35:13;5.70;99.90
43987;DHT22;29650;47.378;8.300;2024-02-15T00:37:41;5.80;99.90
43987;DHT22;29650;47.378;8.300;2024-02-15T00:40:09;5.80;99.90
43987;DHT22;29650;47.378;8.300;2024-02-15T00:42:36;5.60;99.90
43987;DHT22;29650;47.378;8.300;2024-02-15T00:45:04;5.60;99.90
43987;DHT22;29650;47.378;8.300;2024-02-15T00:47:31;5.60;99.90
43987;DHT22;29650;47.378;8.300;2024-02-15T00:49:58;5.50;99.90
43987;DHT22;29650;47.378;8.300;2024-02-15T00:52:25;5.60;99.90
43987;DHT22;29650;47.378;8.300;2024-02-15T00:54:54;5.50;99.90
43987;DHT22;29650;47.378;8.300;2024-02-15T00:57:23;5.50;99.90
43987;DHT22;29650;47.378;8.300;2024-02-15T00:59:50;5.60;99.90
43987;DHT22;29650;47.378;8.300;2024-02-15T01:02:17;5.60;99.90
43987;DHT22;29650;47.378;8.300;2024-02-15T01:04:44;5.60;99.90
43987;DHT22;29650;47.378;8.300;2024-02-15T01:07:12;5.60;99.90
43987;DHT22;29650;47.378;8.300;2024-02-15T01:09:39;5.60;99.90
43987;DHT22;29650;47.378;8.300;2024-02-15T01:12:06;5.60;99.90
43987;DHT22;29650;47.378;8.300;2024-02-15T01:14:34;5.70;99.90
43987;DHT22;29650;47.378;8.300;2024-02-15T01:17:01;5.60;99.90
43987;DHT22;29650;47.378;8.300;2024-02-15T01:19:29;5.70;99.90
43987;DHT22;29650;47.378;8.300;2024-02-15T01:21:56;5.60;99.90
43987;DHT22;29650;47.378;8.300;2024-02-15T01:24:23;5.60;99.90
43987;DHT22;29650;47.378;8.300;2024-02-15T01:26:51;5.50;99.90
43987;DHT22;29650;47.378;8.300;2024-02-15T01:29:18;5.50;99.90
43987;DHT22;29650;47.378;8.300;2024-02-15T01:31:47;5.50;99.90
43987;DHT22;29650;47.378;8.300;2024-02-15T01:34:14;5.30;99.90
43987;DHT22;29650;47.378;8.300;2024-02-15T01:36:41;5.40;99.90
43987;DHT22;29650;47.378;8.300;2024-02-15T01:39:08;5.40;99.90
43987;DHT22;29650;47.378;8.300;2024-02-15T01:41:35;5.30;99.90
43987;DHT22;29650;47.378;8.300;2024-02-15T01:44:02;5.30;99.90
43987;DHT22;29650;47.378;8.300;2024-02-15T01:46:29;5.30;99.90
43987;DHT22;29650;47.378;8.300;2024-02-15T01:48:58;5.20;99.90
43987;DHT22;29650;47.378;8.300;2024-02-15T01:51:25;5.20;99.90
43987;DHT22;29650;47.378;8.300;2024-02-15T01:53:53;5.10;99.90
43987;DHT22;29650;47.378;8.300;2024-02-15T01:56:23;5.20;99.90
43987;DHT22;29650;47.378;8.300;2024-02-15T01:58:51;5.10;99.90
43987;DHT22;29650;47.378;8.300;2024-02-15T02:01:18;5.10;99.90
43987;DHT22;29650;47.378;8.300;2024-02-15T02:03:46;5.10;99.90
43987;DHT22;29650;47.378;8.300;2024-02-15T02:06:15;5.10;99.90
43987;DHT22;29650;47.378;8.300;2024-02-15T02:08:42;5.00;99.90
43987;DHT22;29650;47.378;8.300;2024-02-15T02:11:09;5.00;99.90
43987;DHT22;29650;47.378;8.300;2024-02-15T02:13:36;4.90;99.90
43987;DHT22;29650;47.378;8.300;2024-02-15T02:16:03;4.90;99.90
43987;DHT22;29650;47.378;8.300;2024-02-15T02:18:30;4.80;99.90
43987;DHT22;29650;47.378;8.300;2024-02-15T02:20:57;4.90;99.90
43987;DHT22;29650;47.378;8.300;2024-02-15T02:23:26;4.90;99.90
43987;DHT22;29650;47.378;8.300;2024-02-15T02:25:58;4.90;99.90
43987;DHT22;29650;47.378;8.300;2024-02-15T02:28:25;4.90;99.90
43987;DHT22;29650;47.378;8.300;2024-02-15T02:30:53;5.00;99.90
43987;DHT22;29650;47.378;8.300;2024-02-15T02:33:22;4.90;99.90
43987;DHT22;29650;47.378;8.300;2024-02-15T02:35:54;4.90;99.90
43987;DHT22;29650;47.378;8.300;2024-02-15T02:38:23;4.80;99.90
43987;DHT22;29650;47.378;8.300;2024-02-15T02:40:52;4.80;99.90
43987;DHT22;29650;47.378;8.300;2024-02-15T02:43:20;4.80;99.90
43987;DHT22;29650;47.378;8.300;2024-02-15T02:45:47;4.70;99.90
43987;DHT22;29650;47.378;8.300;2024-02-15T02:48:14;4.60;99.90
43987;DHT22;29650;47.378;8.300;2024-02-15T02:50:41;4.50;99.90
43987;DHT22;29650;47.378;8.300;2024-02-15T02:53:08;4.50;99.90
43987;DHT22;29650;47.378;8.300;2024-02-15T02:55:36;4.50;99.90
43987;DHT22;29650;47.378;8.300;2024-02-15T02:58:03;4.50;99.90
43987;DHT22;29650;47.378;8.300;2024-02-15T03:00:32;4.50;99.90
43987;DHT22;29650;47.378;8.300;2024-02-15T03:03:00;4.50;99.90
43987;DHT22;29650;47.378;8.300;2024-02-15T03:05:27;4.50;99.90
43987;DHT22;29650;47.378;8.300;2024-02-15T03:07:55;4.60;99.90
43987;DHT22;29650;47.378;8.300;2024-02-15T03:10:22;4.60;99.90
43987;DHT22;29650;47.378;8.300;2024-02-15T03:12:50;4.70;99.90
43987;DHT22;29650;47.378;8.300;2024-02-15T03:15:18;4.60;99.90
43987;DHT22;29650;47.378;8.300;2024-02-15T03:17:48;4.50;99.90
43987;DHT22;29650;47.378;8.300;2024-02-15T03:20:15;4.60;99.90
43987;DHT22;29650;47.378;8.300;2024-02-15T03:22:51;4.60;99.90
43987;DHT22;29650;47.378;8.300;2024-02-15T03:25:18;4.70;99.90
43987;DHT22;29650;47.378;8.300;2024-02-15T03:27:49;4.60;99.90
43987;DHT22;29650;47.378;8.300;2024-02-15T03:30:17;4.60;99.90
43987;DHT22;29650;47.378;8.300;2024-02-15T03:32:44;4.40;99.90
43987;DHT22;29650;47.378;8.300;2024-02-15T03:35:15;4.40;99.90
43987;DHT22;29650;47.378;8.300;2024-02-15T03:37:42;4.40;99.90
43987;DHT22;29650;47.378;8.300;2024-02-15T03:40:09;4.40;99.90
43987;DHT22;29650;47.378;8.300;2024-02-15T03:42:36;4.40;99.90
43987;DHT22;29650;47.378;8.300;2024-02-15T03:45:04;4.40;99.90
43987;DHT22;29650;47.378;8.300;2024-02-15T03:47:31;4.30;99.90
43987;DHT22;29650;47.378;8.300;2024-02-15T03:49:59;4.30;99.90
43987;DHT22;29650;47.378;8.300;2024-02-15T03:52:27;4.30;99.90
43987;DHT22;29650;47.378;8.300;2024-02-15T03:54:55;4.40;99.90
43987;DHT22;29650;47.378;8.300;2024-02-15T03:57:22;4.40;99.90
43987;DHT22;29650;47.378;8.300;2024-02-15T03:59:49;4.30;99.90
43987;DHT22;29650;47.378;8.300;2024-02-15T04:02:18;4.30;99.90
43987;DHT22;29650;47.378;8.300;2024-02-15T04:04:45;4.20;99.90
43987;DHT22;29650;47.378;8.300;2024-02-15T04:07:13;4.20;99.90
43987;DHT22;29650;47.378;8.300;2024-02-15T04:09:41;4.30;99.90
43987;DHT22;29650;47.378;8.300;2024-02-15T04:12:08;4.10;99.90
43987;DHT22;29650;47.378;8.300;2024-02-15T04:14:35;4.20;99.90
43987;DHT22;29650;47.378;8.300;2024-02-15T04:17:04;4.20;99.90
43987;DHT22;29650;47.378;8.300;2024-02-15T04:19:31;4.20;99.90
43987;DHT22;29650;47.378;8.300;2024-02-15T04:21:58;4.20;99.90
43987;DHT22;29650;47.378;8.300;2024-02-15T04:24:25;4.20;99.90
43987;DHT22;29650;47.378;8.300;2024-02-15T04:26:54;4.30;99.90
43987;DHT22;29650;47.378;8.300;2024-02-15T04:29:21;4.20;99.90
43987;DHT22;29650;47.378;8.300;2024-02-15T04:31:47;4.20;99.90
43987;DHT22;29650;47.378;8.300;2024-02-15T04:34:15;4.00;99.90
43987;DHT22;29650;47.378;8.300;2024-02-15T04:36:45;3.80;99.90
43987;DHT22;29650;47.378;8.300;2024-02-15T04:39:15;3.60;99.90
43987;DHT22;29650;47.378;8.300;2024-02-15T04:41:49;3.60;99.90
43987;DHT22;29650;47.378;8.300;2024-02-15T04:44:18;3.50;99.90
43987;DHT22;29650;47.378;8.300;2024-02-15T04:46:46;3.50;99.90
43987;DHT22;29650;47.378;8.300;2024-02-15T04:49:13;3.50;99.90
43987;DHT22;29650;47.378;8.300;2024-02-15T04:51:40;3.50;99.90
43987;DHT22;29650;47.378;8.300;2024-02-15T04:54:07;3.50;99.90
43987;DHT22;29650;47.378;8.300;2024-02-15T04:56:38;3.40;99.90
43987;DHT22;29650;47.378;8.300;2024-02-15T04:59:05;3.50;99.90
43987;DHT22;29650;47.378;8.300;2024-02-15T05:01:35;3.30;99.90
43987;DHT22;29650;47.378;8.300;2024-02-15T05:04:02;3.60;99.90
43987;DHT22;29650;47.378;8.300;2024-02-15T05:06:33;3.70;99.90
43987;DHT22;29650;47.378;8.300;2024-02-15T05:09:02;3.60;99.90
43987;DHT22;29650;47.378;8.300;2024-02-15T05:11:33;3.60;99.90
43987;DHT22;29650;47.378;8.300;2024-02-15T05:14:01;3.70;99.90
43987;DHT22;29650;47.378;8.300;2024-02-15T05:16:28;3.80;99.90
43987;DHT22;29650;47.378;8.300;2024-02-15T05:18:58;3.90;99.90
43987;DHT22;29650;47.378;8.300;2024-02-15T05:21:25;3.80;99.90
43987;DHT22;29650;47.378;8.300;2024-02-15T05:23:52;3.80;99.90
43987;DHT22;29650;47.378;8.300;2024-02-15T05:26:19;3.70;99.90
43987;DHT22;29650;47.378;8.300;2024-02-15T05:28:48;3.60;99.90
43987;DHT22;29650;47.378;8.300;2024-02-15T05:31:17;3.50;99.90
43987;DHT22;29650;47.378;8.300;2024-02-15T05:33:46;3.60;99.90
43987;DHT22;29650;47.378;8.300;2024-02-15T05:36:15;3.50;99.90
43987;DHT22;29650;47.378;8.300;2024-02-15T05:38:47;3.50;99.90
43987;DHT22;29650;47.378;8.300;2024-02-15T05:41:14;3.40;99.90
43987;DHT22;29650;47.378;8.300;2024-02-15T05:43:42;3.40;99.90
43987;DHT22;29650;47.378;8.300;2024-02-15T05:46:09;3.40;99.90
43987;DHT22;29650;47.378;8.300;2024-02-15T05:48:37;3.30;99.90
43987;DHT22;29650;47.378;8.300;2024-02-15T05:51:05;3.20;99.90
43987;DHT22;29650;47.378;8.300;2024-02-15T05:53:34;3.20;99.90
43987;DHT22;29650;47.378;8.300;2024-02-15T05:56:02;3.20;99.90
43987;DHT22;29650;47.378;8.300;2024-02-15T05:58:29;3.10;99.90
43987;DHT22;29650;47.378;8.300;2024-02-15T06:00:57;3.10;99.90
43987;DHT22;29650;47.378;8.300;2024-02-15T06:03:27;3.40;99.90
43987;DHT22;29650;47.378;8.300;2024-02-15T06:05:54;3.30;99.90
43987;DHT22;29650;47.378;8.300;2024-02-15T06:08:24;3.50;99.90
43987;DHT22;29650;47.378;8.300;2024-02-15T06:10:52;3.50;99.90
43987;DHT22;29650;47.378;8.300;2024-02-15T06:13:19;3.70;99.90
43987;DHT22;29650;47.378;8.300;2024-02-15T06:15:46;3.50;99.90
43987;DHT22;29650;47.378;8.300;2024-02-15T06:18:18;4.30;99.90
43987;DHT22;29650;47.378;8.300;2024-02-15T06:20:47;3.70;99.90
43987;DHT22;29650;47.378;8.300;2024-02-15T06:23:15;3.60;99.90
43987;DHT22;29650;47.378;8.300;2024-02-15T06:25:42;3.50;99.90
43987;DHT22;29650;47.378;8.300;2024-02-15T06:28:11;3.50;99.90
43987;DHT22;29650;47.378;8.300;2024-02-15T06:31:00;3.50;99.90
43987;DHT22;29650;47.378;8.300;2024-02-15T06:33:44;3.40;99.90
43987;DHT22;29650;47.378;8.300;2024-02-15T06:36:29;3.20;99.90
43987;DHT22;29650;47.378;8.300;2024-02-15T06:42:40;2.90;99.90
43987;DHT22;29650;47.378;8.300;2024-02-15T06:45:08;2.90;99.90
43987;DHT22;29650;47.378;8.300;2024-02-15T06:47:35;4.20;99.90
43987;DHT22;29650;47.378;8.300;2024-02-15T06:50:03;3.10;99.90
43987;DHT22;29650;47.378;8.300;2024-02-15T06:52:30;2.00;99.90
43987;DHT22;29650;47.378;8.300;2024-02-15T06:57:24;3.10;99.90
43987;DHT22;29650;47.378;8.300;2024-02-15T06:59:51;3.20;99.90
43987;DHT22;29650;47.378;8.300;2024-02-15T07:02:19;3.30;99.90
43987;DHT22;29650;47.378;8.300;2024-02-15T07:04:48;3.50;99.90
43987;DHT22;29650;47.378;8.300;2024-02-15T07:07:17;3.50;99.90
43987;DHT22;29650;47.378;8.300;2024-02-15T07:09:44;3.60;99.90
43987;DHT22;29650;47.378;8.300;2024-02-15T07:12:11;3.70;99.90
43987;DHT22;29650;47.378;8.300;2024-02-15T07:14:38;3.90;99.90
43987;DHT22;29650;47.378;8.300;2024-02-15T07:17:05;3.90;99.90
43987;DHT22;29650;47.378;8.300;2024-02-15T07:19:33;4.40;99.90
43987;DHT22;29650;47.378;8.300;2024-02-15T07:22:03;4.10;99.90
43987;DHT22;29650;47.378;8.300;2024-02-15T07:24:30;4.20;99.90
43987;DHT22;29650;47.378;8.300;2024-02-15T07:26:57;4.20;99.90
43987;DHT22;29650;47.378;8.300;2024-02-15T07:29:24;4.10;99.90
43987;DHT22;29650;47.378;8.300;2024-02-15T07:31:53;4.10;99.90
43987;DHT22;29650;47.378;8.300;2024-02-15T07:34:20;4.10;99.90
43987;DHT22;29650;47.378;8.300;2024-02-15T07:36:49;4.20;99.90
43987;DHT22;29650;47.378;8.300;2024-02-15T07:39:17;4.30;99.90
43987;DHT22;29650;47.378;8.300;2024-02-15T07:41:48;4.40;99.90
43987;DHT22;29650;47.378;8.300;2024-02-15T07:44:16;4.40;99.90
43987;DHT22;29650;47.378;8.300;2024-02-15T07:46:43;4.50;99.90
43987;DHT22;29650;47.378;8.300;2024-02-15T07:49:10;4.60;99.90
43987;DHT22;29650;47.378;8.300;2024-02-15T07:51:37;4.70;99.90
43987;DHT22;29650;47.378;8.300;2024-02-15T07:54:05;4.60;99.90
43987;DHT22;29650;47.378;8.300;2024-02-15T07:56:32;4.80;99.90
43987;DHT22;29650;47.378;8.300;2024-02-15T07:59:00;4.90;99.90
43987;DHT22;29650;47.378;8.300;2024-02-15T08:01:28;4.70;99.90
43987;DHT22;29650;47.378;8.300;2024-02-15T08:03:56;4.60;99.90
43987;DHT22;29650;47.378;8.300;2024-02-15T08:06:23;4.60;99.90
43987;DHT22;29650;47.378;8.300;2024-02-15T08:08:53;4.60;99.90
43987;DHT22;29650;47.378;8.300;2024-02-15T08:11:21;4.70;99.90
43987;DHT22;29650;47.378;8.300;2024-02-15T08:13:50;4.70;99.90
43987;DHT22;29650;47.378;8.300;2024-02-15T08:16:20;4.90;99.90
43987;DHT22;29650;47.378;8.300;2024-02-15T08:18:48;5.00;99.90
43987;DHT22;29650;47.378;8.300;2024-02-15T08:21:18;5.10;99.90
43987;DHT22;29650;47.378;8.300;2024-02-15T08:23:46;5.30;99.90
43987;DHT22;29650;47.378;8.300;2024-02-15T08:26:13;5.40;99.90
43987;DHT22;29650;47.378;8.300;2024-02-15T08:28:43;5.40;99.90
43987;DHT22;29650;47.378;8.300;2024-02-15T08:31:10;5.50;99.90
43987;DHT22;29650;47.378;8.300;2024-02-15T08:33:40;5.40;99.90
43987;DHT22;29650;47.378;8.300;2024-02-15T08:36:08;5.50;99.90
43987;DHT22;29650;47.378;8.300;2024-02-15T08:38:36;5.50;99.90
43987;DHT22;29650;47.378;8.300;2024-02-15T08:41:03;5.70;99.90
43987;DHT22;29650;47.378;8.300;2024-02-15T08:43:32;5.70;99.90
43987;DHT22;29650;47.378;8.300;2024-02-15T08:46:01;5.60;99.90
43987;DHT22;29650;47.378;8.300;2024-02-15T08:48:27;5.60;99.90
43987;DHT22;29650;47.378;8.300;2024-02-15T08:50:56;5.60;99.90
43987;DHT22;29650;47.378;8.300;2024-02-15T08:53:23;6.10;99.90
43987;DHT22;29650;47.378;8.300;2024-02-15T08:55:50;6.20;99.90
43987;DHT22;29650;47.378;8.300;2024-02-15T08:58:18;6.20;99.90
43987;DHT22;29650;47.378;8.300;2024-02-15T09:00:47;6.30;99.90
43987;DHT22;29650;47.378;8.300;2024-02-15T09:03:15;6.60;99.90
43987;DHT22;29650;47.378;8.300;2024-02-15T09:05:44;6.80;99.90
43987;DHT22;29650;47.378;8.300;2024-02-15T09:08:11;6.80;99.90
43987;DHT22;29650;47.378;8.300;2024-02-15T09:10:38;6.60;99.90
43987;DHT22;29650;47.378;8.300;2024-02-15T09:13:05;6.40;99.90
43987;DHT22;29650;47.378;8.300;2024-02-15T09:15:32;6.50;99.90
43987;DHT22;29650;47.378;8.300;2024-02-15T09:17:59;6.50;99.90
43987;DHT22;29650;47.378;8.300;2024-02-15T09:20:28;6.70;99.90
43987;DHT22;29650;47.378;8.300;2024-02-15T09:22:57;6.60;99.90
43987;DHT22;29650;47.378;8.300;2024-02-15T09:25:25;6.70;99.90
43987;DHT22;29650;47.378;8.300;2024-02-15T09:27:52;6.90;99.90
43987;DHT22;29650;47.378;8.300;2024-02-15T09:30:19;6.90;99.90
43987;DHT22;29650;47.378;8.300;2024-02-15T09:32:50;6.80;99.90
43987;DHT22;29650;47.378;8.300;2024-02-15T09:35:17;7.00;99.90
43987;DHT22;29650;47.378;8.300;2024-02-15T09:37:47;7.30;99.90
43987;DHT22;29650;47.378;8.300;2024-02-15T09:40:15;7.30;99.90
43987;DHT22;29650;47.378;8.300;2024-02-15T09:42:43;7.40;99.90
43987;DHT22;29650;47.378;8.300;2024-02-15T09:45:12;7.40;99.90
43987;DHT22;29650;47.378;8.300;2024-02-15T09:47:40;7.30;99.90
43987;DHT22;29650;47.378;8.300;2024-02-15T09:50:08;7.20;99.90
43987;DHT22;29650;47.378;8.300;2024-02-15T09:52:38;7.30;99.90
43987;DHT22;29650;47.378;8.300;2024-02-15T09:55:07;7.40;99.90
43987;DHT22;29650;47.378;8.300;2024-02-15T09:57:36;7.50;99.90
43987;DHT22;29650;47.378;8.300;2024-02-15T10:00:06;7.60;99.90
43987;DHT22;29650;47.378;8.300;2024-02-15T10:02:35;7.70;99.90
43987;DHT22;29650;47.378;8.300;2024-02-15T10:05:04;7.90;99.90
43987;DHT22;29650;47.378;8.300;2024-02-15T10:07:31;8.00;99.90
43987;DHT22;29650;47.378;8.300;2024-02-15T10:10:16;8.20;99.90
43987;DHT22;29650;47.378;8.300;2024-02-15T10:12:44;8.00;99.90
43987;DHT22;29650;47.378;8.300;2024-02-15T10:15:26;8.20;99.90
43987;DHT22;29650;47.378;8.300;2024-02-15T10:17:54;8.30;99.90
43987;DHT22;29650;47.378;8.300;2024-02-15T10:20:21;8.30;99.90
43987;DHT22;29650;47.378;8.300;2024-02-15T10:22:51;8.30;99.90
43987;DHT22;29650;47.378;8.300;2024-02-15T10:25:20;8.40;99.90
43987;DHT22;29650;47.378;8.300;2024-02-15T10:27:48;8.60;99.90
43987;DHT22;29650;47.378;8.300;2024-02-15T10:30:17;8.60;99.90
43987;DHT22;29650;47.378;8.300;2024-02-15T10:32:44;8.60;99.90
43987;DHT22;29650;47.378;8.300;2024-02-15T10:35:19;8.80;99.50
43987;DHT22;29650;47.378;8.300;2024-02-15T10:37:47;8.90;96.90
43987;DHT22;29650;47.378;8.300;2024-02-15T10:40:17;8.90;95.40
43987;DHT22;29650;47.378;8.300;2024-02-15T10:42:47;9.00;91.70
43987;DHT22;29650;47.378;8.300;2024-02-15T10:45:15;9.10;88.50
43987;DHT22;29650;47.378;8.300;2024-02-15T10:47:44;9.20;84.10
43987;DHT22;29650;47.378;8.300;2024-02-15T10:50:12;9.20;79.50
43987;DHT22;29650;47.378;8.300;2024-02-15T10:52:47;9.30;77.10
43987;DHT22;29650;47.378;8.300;2024-02-15T10:55:22;9.40;81.20
43987;DHT22;29650;47.378;8.300;2024-02-15T10:57:54;9.50;79.40
43987;DHT22;29650;47.378;8.300;2024-02-15T11:00:24;9.60;84.30
43987;DHT22;29650;47.378;8.300;2024-02-15T11:03:01;9.50;82.20
43987;DHT22;29650;47.378;8.300;2024-02-15T11:05:33;9.60;83.30
43987;DHT22;29650;47.378;8.300;2024-02-15T11:08:05;9.70;81.70
43987;DHT22;29650;47.378;8.300;2024-02-15T11:10:33;9.90;82.30
43987;DHT22;29650;47.378;8.300;2024-02-15T11:13:03;9.90;76.80
43987;DHT22;29650;47.378;8.300;2024-02-15T11:15:51;10.00;75.20
43987;DHT22;29650;47.378;8.300;2024-02-15T11:18:43;10.00;73.00
43987;DHT22;29650;47.378;8.300;2024-02-15T11:21:17;10.10;75.60
43987;DHT22;29650;47.378;8.300;2024-02-15T11:23:44;10.20;71.20
43987;DHT22;29650;47.378;8.300;2024-02-15T11:26:42;10.20;65.60
43987;DHT22;29650;47.378;8.300;2024-02-15T11:29:50;10.40;64.80
43987;DHT22;29650;47.378;8.300;2024-02-15T11:32:38;10.50;58.40
43987;DHT22;29650;47.378;8.300;2024-02-15T11:35:06;10.50;53.00
43987;DHT22;29650;47.378;8.300;2024-02-15T11:37:56;10.50;51.10
43987;DHT22;29650;47.378;8.300;2024-02-15T11:40:26;10.70;54.10
43987;DHT22;29650;47.378;8.300;2024-02-15T11:42:55;10.60;51.70
43987;DHT22;29650;47.378;8.300;2024-02-15T11:45:24;10.70;55.00
43987;DHT22;29650;47.378;8.300;2024-02-15T11:47:53;10.70;52.30
43987;DHT22;29650;47.378;8.300;2024-02-15T11:50:22;10.90;53.50
43987;DHT22;29650;47.378;8.300;2024-02-15T11:52:50;11.00;49.00
43987;DHT22;29650;47.378;8.300;2024-02-15T11:55:21;11.10;47.10
43987;DHT22;29650;47.378;8.300;2024-02-15T11:57:56;11.10;48.30
43987;DHT22;29650;47.378;8.300;2024-02-15T12:00:30;11.00;47.50
43987;DHT22;29650;47.378;8.300;2024-02-15T12:03:15;11.00;45.80
43987;DHT22;29650;47.378;8.300;2024-02-15T12:06:00;11.20;46.40
43987;DHT22;29650;47.378;8.300;2024-02-15T12:08:45;11.30;45.50
43987;DHT22;29650;47.378;8.300;2024-02-15T12:11:29;11.50;44.60
43987;DHT22;29650;47.378;8.300;2024-02-15T12:14:12;11.60;43.60
43987;DHT22;29650;47.378;8.300;2024-02-15T12:17:13;11.80;42.40
43987;DHT22;29650;47.378;8.300;2024-02-15T12:20:10;11.90;40.50
43987;DHT22;29650;47.378;8.300;2024-02-15T12:22:40;12.00;40.60
43987;DHT22;29650;47.378;8.300;2024-02-15T12:25:08;12.00;38.50
43987;DHT22;29650;47.378;8.300;2024-02-15T12:27:40;12.00;37.60
43987;DHT22;29650;47.378;8.300;2024-02-15T12:30:13;12.30;43.50
43987;DHT22;29650;47.378;8.300;2024-02-15T12:32:42;12.50;39.40
43987;DHT22;29650;47.378;8.300;2024-02-15T12:35:13;12.30;36.50
43987;DHT22;29650;47.378;8.300;2024-02-15T12:37:42;12.30;32.40
43987;DHT22;29650;47.378;8.300;2024-02-15T12:40:12;12.30;32.90
43987;DHT22;29650;47.378;8.300;2024-02-15T12:42:42;12.30;34.70
43987;DHT22;29650;47.378;8.300;2024-02-15T12:45:15;12.30;31.40
43987;DHT22;29650;47.378;8.300;2024-02-15T12:47:47;12.40;31.20
43987;DHT22;29650;47.378;8.300;2024-02-15T12:50:17;12.50;27.10
43987;DHT22;29650;47.378;8.300;2024-02-15T12:52:46;12.60;26.50
43987;DHT22;29650;47.378;8.300;2024-02-15T12:55:15;12.50;26.80
43987;DHT22;29650;47.378;8.300;2024-02-15T12:57:44;12.50;26.50
43987;DHT22;29650;47.378;8.300;2024-02-15T13:00:17;12.50;25.90
43987;DHT22;29650;47.378;8.300;2024-02-15T13:02:48;12.60;27.70
43987;DHT22;29650;47.378;8.300;2024-02-15T13:05:16;12.70;25.30
43987;DHT22;29650;47.378;8.300;2024-02-15T13:07:46;12.90;25.00
43987;DHT22;29650;47.378;8.300;2024-02-15T13:10:13;12.80;22.60
43987;DHT22;29650;47.378;8.300;2024-02-15T13:12:41;12.90;22.60
43987;DHT22;29650;47.378;8.300;2024-02-15T13:15:10;12.90;22.70
43987;DHT22;29650;47.378;8.300;2024-02-15T13:17:42;13.00;26.40
43987;DHT22;29650;47.378;8.300;2024-02-15T13:20:11;13.00;24.20
43987;DHT22;29650;47.378;8.300;2024-02-15T13:22:39;13.00;24.60
43987;DHT22;29650;47.378;8.300;2024-02-15T13:25:07;13.00;24.30
43987;DHT22;29650;47.378;8.300;2024-02-15T13:27:35;13.00;24.30
43987;DHT22;29650;47.378;8.300;2024-02-15T13:30:04;13.10;26.20
43987;DHT22;29650;47.378;8.300;2024-02-15T13:32:34;13.20;24.60
43987;DHT22;29650;47.378;8.300;2024-02-15T13:35:02;13.10;25.50
43987;DHT22;29650;47.378;8.300;2024-02-15T13:37:40;13.20;24.10
43987;DHT22;29650;47.378;8.300;2024-02-15T13:40:09;13.20;22.20
43987;DHT22;29650;47.378;8.300;2024-02-15T13:42:41;13.20;25.20
43987;DHT22;29650;47.378;8.300;2024-02-15T13:45:12;13.20;23.90
43987;DHT22;29650;47.378;8.300;2024-02-15T13:47:40;13.20;25.30
43987;DHT22;29650;47.378;8.300;2024-02-15T13:50:08;13.00;23.80
43987;DHT22;29650;47.378;8.300;2024-02-15T13:52:35;13.10;25.70
43987;DHT22;29650;47.378;8.300;2024-02-15T13:55:04;13.10;26.40
43987;DHT22;29650;47.378;8.300;2024-02-15T13:57:31;13.00;25.80
43987;DHT22;29650;47.378;8.300;2024-02-15T13:59:58;13.10;25.50
43987;DHT22;29650;47.378;8.300;2024-02-15T14:02:25;13.00;24.90
43987;DHT22;29650;47.378;8.300;2024-02-15T14:04:52;13.00;25.40
43987;DHT22;29650;47.378;8.300;2024-02-15T14:07:19;13.10;25.90
43987;DHT22;29650;47.378;8.300;2024-02-15T14:09:46;13.00;26.20
43987;DHT22;29650;47.378;8.300;2024-02-15T14:12:14;12.90;25.70
43987;DHT22;29650;47.378;8.300;2024-02-15T14:14:41;12.90;25.50
43987;DHT22;29650;47.378;8.300;2024-02-15T14:17:09;12.90;25.40
43987;DHT22;29650;47.378;8.300;2024-02-15T14:19:36;12.80;26.30
43987;DHT22;29650;47.378;8.300;2024-02-15T14:22:04;12.90;25.20
43987;DHT22;29650;47.378;8.300;2024-02-15T14:24:34;12.90;25.20
43987;DHT22;29650;47.378;8.300;2024-02-15T14:27:04;12.80;26.20
43987;DHT22;29650;47.378;8.300;2024-02-15T14:29:32;12.80;25.90
43987;DHT22;29650;47.378;8.300;2024-02-15T14:32:03;12.90;27.00
43987;DHT22;29650;47.378;8.300;2024-02-15T14:34:48;12.80;26.90
43987;DHT22;29650;47.378;8.300;2024-02-15T14:37:15;12.80;28.00
43987;DHT22;29650;47.378;8.300;2024-02-15T14:39:44;12.90;27.70
43987;DHT22;29650;47.378;8.300;2024-02-15T14:42:12;12.80;29.70
43987;DHT22;29650;47.378;8.300;2024-02-15T14:44:41;12.80;32.00
43987;DHT22;29650;47.378;8.300;2024-02-15T14:47:09;12.80;32.10
43987;DHT22;29650;47.378;8.300;2024-02-15T14:49:36;12.70;31.20
43987;DHT22;29650;47.378;8.300;2024-02-15T14:52:04;12.70;32.00
43987;DHT22;29650;47.378;8.300;2024-02-15T14:54:31;12.60;33.30
43987;DHT22;29650;47.378;8.300;2024-02-15T14:56:58;12.60;33.40
43987;DHT22;29650;47.378;8.300;2024-02-15T14:59:26;12.60;34.10
43987;DHT22;29650;47.378;8.300;2024-02-15T15:01:54;12.60;35.60
43987;DHT22;29650;47.378;8.300;2024-02-15T15:04:23;12.60;38.20
43987;DHT22;29650;47.378;8.300;2024-02-15T15:06:52;12.60;34.80
43987;DHT22;29650;47.378;8.300;2024-02-15T15:09:36;12.50;34.20
43987;DHT22;29650;47.378;8.300;2024-02-15T15:12:20;12.50;35.20
43987;DHT22;29650;47.378;8.300;2024-02-15T15:15:01;12.50;35.60
43987;DHT22;29650;47.378;8.300;2024-02-15T15:17:32;12.50;36.40
43987;DHT22;29650;47.378;8.300;2024-02-15T15:19:59;12.50;37.00
43987;DHT22;29650;47.378;8.300;2024-02-15T15:22:27;12.50;36.20
43987;DHT22;29650;47.378;8.300;2024-02-15T15:24:54;12.50;37.20
43987;DHT22;29650;47.378;8.300;2024-02-15T15:27:22;12.50;36.20
43987;DHT22;29650;47.378;8.300;2024-02-15T15:29:49;12.60;36.20
43987;DHT22;29650;47.378;8.300;2024-02-15T15:32:16;12.50;36.60
43987;DHT22;29650;47.378;8.300;2024-02-15T15:34:45;12.40;37.60
43987;DHT22;29650;47.378;8.300;2024-02-15T15:37:12;12.50;36.30
43987;DHT22;29650;47.378;8.300;2024-02-15T15:39:39;12.40;36.20
43987;DHT22;29650;47.378;8.300;2024-02-15T15:42:06;12.40;36.00
43987;DHT22;29650;47.378;8.300;2024-02-15T15:44:33;12.40;37.00
43987;DHT22;29650;47.378;8.300;2024-02-15T15:47:02;12.40;37.90
43987;DHT22;29650;47.378;8.300;2024-02-15T15:49:29;12.40;37.70
43987;DHT22;29650;47.378;8.300;2024-02-15T15:51:58;12.30;39.00
43987;DHT22;29650;47.378;8.300;2024-02-15T15:54:25;12.30;37.70
43987;DHT22;29650;47.378;8.300;2024-02-15T15:56:53;12.20;36.60
43987;DHT22;29650;47.378;8.300;2024-02-15T15:59:22;12.20;37.10
43987;DHT22;29650;47.378;8.300;2024-02-15T16:01:50;12.20;36.50